sensor_id;sensor_type;location;lat;lon;timestamp;pressure;altitude;pressure_sealevel;temperature;humidity
68889;BME280;55930;47.412;8.790;2024-02-26T00:02:40;92768.03;;;4.91;100.00
68889;BME280;55930;47.412;8.790;2024-02-26T00:06:02;92762.34;;;4.98;100.00
68889;BME280;55930;47.412;8.790;2024-02-26T00:09:22;92774.72;;;4.92;100.00
68889;BME280;55930;47.412;8.790;2024-02-26T00:12:43;92777.19;;;5.02;100.00
68889;BME280;55930;47.412;8.790;2024-02-26T00:16:04;92766.56;;;5.16;100.00
68889;BME280;55930;47.412;8.790;2024-02-26T00:19:24;92729.91;;;5.38;100.00
68889;BME280;55930;47.412;8.790;2024-02-26T00:22:44;92733.44;;;5.35;100.00
68889;BME280;55930;47.412;8.790;2024-02-26T00:26:05;92714.91;;;5.50;100.00
68889;BME280;55930;47.412;8.790;2024-02-26T00:29:32;92718.22;;;5.45;100.00
68889;BME280;55930;47.412;8.790;2024-02-26T00:32:53;92706.50;;;5.46;100.00
68889;BME280;55930;47.412;8.790;2024-02-26T00:36:13;92707.84;;;5.25;100.00
68889;BME280;55930;47.412;8.790;2024-02-26T00:39:34;92732.25;;;4.99;100.00
68889;BME280;55930;47.412;8.790;2024-02-26T00:42:54;92742.38;;;5.12;100.00
68889;BME280;55930;47.412;8.790;2024-02-26T00:46:15;92750.03;;;5.10;100.00
68889;BME280;55930;47.412;8.790;2024-02-26T00:49:37;92746.09;;;4.94;100.00
68889;BME280;55930;47.412;8.790;2024-02-26T00:52:57;92748.63;;;4.83;100.00
68889;BME280;55930;47.412;8.790;2024-02-26T00:56:18;92750.63;;;4.94;100.00
68889;BME280;55930;47.412;8.790;2024-02-26T00:59:38;92764.78;;;5.02;100.00
68889;BME280;55930;47.412;8.790;2024-02-26T01:02:59;92761.47;;;5.07;100.00
68889;BME280;55930;47.412;8.790;2024-02-26T01:06:20;92761.66;;;5.04;100.00
68889;BME280;55930;47.412;8.790;2024-02-26T01:09:44;92769.06;;;4.74;100.00
68889;BME280;55930;47.412;8.790;2024-02-26T01:13:05;92770.53;;;4.80;100.00
68889;BME280;55930;47.412;8.790;2024-02-26T01:16:25;92786.47;;;4.71;100.00
68889;BME280;55930;47.412;8.790;2024-02-26T01:19:45;92781.13;;;4.60;100.00
68889;BME280;55930;47.412;8.790;2024-02-26T01:23:08;92762.97;;;4.88;100.00
68889;BME280;55930;47.412;8.790;2024-02-26T01:26:29;92736.22;;;5.21;100.00
68889;BME280;55930;47.412;8.790;2024-02-26T01:29:49;92720.31;;;5.35;100.00
68889;BME280;55930;47.412;8.790;2024-02-26T01:33:09;92701.91;;;5.35;100.00
68889;BME280;55930;47.412;8.790;2024-02-26T01:36:30;92711.00;;;5.34;100.00
68889;BME280;55930;47.412;8.790;2024-02-26T01:39:51;92729.63;;;5.31;100.00
68889;BME280;55930;47.412;8.790;2024-02-26T01:43:17;92728.16;;;5.30;100.00
68889;BME280;55930;47.412;8.790;2024-02-26T01:46:37;92751.09;;;5.29;100.00
68889;BME280;55930;47.412;8.790;2024-02-26T01:49:57;92751.34;;;5.26;100.00
68889;BME280;55930;47.412;8.790;2024-02-26T01:53:18;92738.38;;;5.17;100.00
68889;BME280;55930;47.412;8.790;2024-02-26T01:56:40;92743.63;;;5.17;100.00
68889;BME280;55930;47.412;8.790;2024-02-26T02:00:01;92751.78;;;5.19;100.00
68889;BME280;55930;47.412;8.790;2024-02-26T02:03:22;92748.16;;;5.16;100.00
68889;BME280;55930;47.412;8.790;2024-02-26T02:06:45;92751.44;;;5.11;100.00
68889;BME280;55930;47.412;8.790;2024-02-26T02:10:07;92754.13;;;5.17;100.00
68889;BME280;55930;47.412;8.790;2024-02-26T02:13:27;92760.06;;;5.12;100.00
68889;BME280;55930;47.412;8.790;2024-02-26T02:16:48;92760.03;;;5.06;100.00
68889;BME280;55930;47.412;8.790;2024-02-26T02:20:09;92763.84;;;5.05;100.00
68889;BME280;55930;47.412;8.790;2024-02-26T02:23:30;92753.16;;;5.14;100.00
68889;BME280;55930;47.412;8.790;2024-02-26T02:26:50;92754.06;;;5.11;100.00
68889;BME280;55930;47.412;8.790;2024-02-26T02:30:11;92748.34;;;5.13;100.00
68889;BME280;55930;47.412;8.790;2024-02-26T02:33:36;92753.59;;;5.07;100.00
68889;BME280;55930;47.412;8.790;2024-02-26T02:36:58;92762.06;;;4.91;100.00
68889;BME280;55930;47.412;8.790;2024-02-26T02:40:19;92773.28;;;4.91;100.00
68889;BME280;55930;47.412;8.790;2024-02-26T02:43:39;92761.16;;;4.99;100.00
68889;BME280;55930;47.412;8.790;2024-02-26T02:47:00;92751.16;;;5.04;100.00
68889;BME280;55930;47.412;8.790;2024-02-26T02:50:20;92754.31;;;5.08;100.00
68889;BME280;55930;47.412;8.790;2024-02-26T02:53:43;92739.97;;;5.09;100.00
68889;BME280;55930;47.412;8.790;2024-02-26T02:57:03;92726.84;;;5.09;100.00
68889;BME280;55930;47.412;8.790;2024-02-26T03:00:23;92721.53;;;5.03;100.00
68889;BME280;55930;47.412;8.790;2024-02-26T03:03:44;92725.38;;;5.02;100.00
68889;BME280;55930;47.412;8.790;2024-02-26T03:07:04;92724.34;;;4.94;100.00
68889;BME280;55930;47.412;8.790;2024-02-26T03:10:25;92725.84;;;5.06;100.00
68889;BME280;55930;47.412;8.790;2024-02-26T03:13:45;92736.78;;;4.99;100.00
68889;BME280;55930;47.412;8.790;2024-02-26T03:17:05;92727.47;;;4.98;100.00
68889;BME280;55930;47.412;8.790;2024-02-26T03:20:26;92717.19;;;4.94;100.00
68889;BME280;55930;47.412;8.790;2024-02-26T03:23:46;92696.13;;;4.89;100.00
68889;BME280;55930;47.412;8.790;2024-02-26T03:27:07;92698.72;;;4.83;100.00
68889;BME280;55930;47.412;8.790;2024-02-26T03:30:29;92694.38;;;4.80;100.00
68889;BME280;55930;47.412;8.790;2024-02-26T03:33:49;92705.72;;;4.66;100.00
68889;BME280;55930;47.412;8.790;2024-02-26T03:37:10;92718.53;;;4.53;100.00
68889;BME280;55930;47.412;8.790;2024-02-26T03:40:31;92718.22;;;4.45;100.00
68889;BME280;55930;47.412;8.790;2024-02-26T03:43:51;92729.06;;;4.33;100.00
68889;BME280;55930;47.412;8.790;2024-02-26T03:47:11;92755.66;;;4.20;100.00
68889;BME280;55930;47.412;8.790;2024-02-26T03:50:32;92787.53;;;3.72;100.00
68889;BME280;55930;47.412;8.790;2024-02-26T03:53:54;92825.50;;;3.97;100.00
68889;BME280;55930;47.412;8.790;2024-02-26T03:57:15;92833.44;;;4.03;100.00
68889;BME280;55930;47.412;8.790;2024-02-26T04:00:38;92831.28;;;4.01;100.00
68889;BME280;55930;47.412;8.790;2024-02-26T04:03:58;92825.56;;;4.03;100.00
68889;BME280;55930;47.412;8.790;2024-02-26T04:07:19;92821.84;;;4.09;100.00
68889;BME280;55930;47.412;8.790;2024-02-26T04:10:39;92832.25;;;4.04;100.00
68889;BME280;55930;47.412;8.790;2024-02-26T04:13:59;92848.72;;;4.04;100.00
68889;BME280;55930;47.412;8.790;2024-02-26T04:17:20;92873.34;;;3.92;100.00
68889;BME280;55930;47.412;8.790;2024-02-26T04:20:40;92900.44;;;4.18;100.00
68889;BME280;55930;47.412;8.790;2024-02-26T04:24:02;92905.41;;;4.16;100.00
68889;BME280;55930;47.412;8.790;2024-02-26T04:27:22;92944.81;;;4.02;100.00
68889;BME280;55930;47.412;8.790;2024-02-26T04:30:43;92948.84;;;4.17;100.00
68889;BME280;55930;47.412;8.790;2024-02-26T04:34:03;92941.69;;;4.18;100.00
68889;BME280;55930;47.412;8.790;2024-02-26T04:37:24;92942.75;;;4.26;100.00
68889;BME280;55930;47.412;8.790;2024-02-26T04:40:50;92943.94;;;4.25;100.00
68889;BME280;55930;47.412;8.790;2024-02-26T04:44:11;92950.84;;;4.08;100.00
68889;BME280;55930;47.412;8.790;2024-02-26T04:47:31;92939.91;;;4.09;100.00
68889;BME280;55930;47.412;8.790;2024-02-26T04:50:52;92952.03;;;4.07;100.00
68889;BME280;55930;47.412;8.790;2024-02-26T04:54:12;92947.50;;;4.07;100.00
68889;BME280;55930;47.412;8.790;2024-02-26T04:57:32;92939.22;;;3.94;100.00
68889;BME280;55930;47.412;8.790;2024-02-26T05:00:53;92951.50;;;4.03;100.00
68889;BME280;55930;47.412;8.790;2024-02-26T05:04:13;92952.88;;;3.98;100.00
68889;BME280;55930;47.412;8.790;2024-02-26T05:07:34;92947.78;;;4.09;100.00
68889;BME280;55930;47.412;8.790;2024-02-26T05:10:54;92945.16;;;4.09;100.00
68889;BME280;55930;47.412;8.790;2024-02-26T05:14:14;92953.50;;;3.93;100.00
68889;BME280;55930;47.412;8.790;2024-02-26T05:17:35;92945.19;;;3.95;100.00
68889;BME280;55930;47.412;8.790;2024-02-26T05:20:55;92941.91;;;4.00;100.00
68889;BME280;55930;47.412;8.790;2024-02-26T05:24:16;92932.50;;;3.93;100.00
68889;BME280;55930;47.412;8.790;2024-02-26T05:27:37;92956.84;;;3.79;100.00
68889;BME280;55930;47.412;8.790;2024-02-26T05:30:57;92984.34;;;3.83;100.00
68889;BME280;55930;47.412;8.790;2024-02-26T05:34:18;92988.16;;;3.97;100.00
68889;BME280;55930;47.412;8.790;2024-02-26T05:37:40;92986.78;;;3.87;100.00
68889;BME280;55930;47.412;8.790;2024-02-26T05:41:01;93006.16;;;3.75;100.00
68889;BME280;55930;47.412;8.790;2024-02-26T05:44:22;93012.09;;;3.75;100.00
68889;BME280;55930;47.412;8.790;2024-02-26T05:47:47;93014.56;;;3.94;100.00
68889;BME280;55930;47.412;8.790;2024-02-26T05:51:09;93004.97;;;3.91;100.00
68889;BME280;55930;47.412;8.790;2024-02-26T05:54:29;93004.50;;;3.77;100.00
68889;BME280;55930;47.412;8.790;2024-02-26T05:57:52;93020.16;;;3.72;100.00
68889;BME280;55930;47.412;8.790;2024-02-26T06:01:12;93036.34;;;3.85;100.00
68889;BME280;55930;47.412;8.790;2024-02-26T06:04:32;93051.63;;;3.72;100.00
68889;BME280;55930;47.412;8.790;2024-02-26T06:07:55;93066.38;;;3.84;100.00
68889;BME280;55930;47.412;8.790;2024-02-26T06:11:16;93059.88;;;3.94;100.00
68889;BME280;55930;47.412;8.790;2024-02-26T06:14:39;93061.97;;;3.90;100.00
68889;BME280;55930;47.412;8.790;2024-02-26T06:18:02;93058.88;;;3.92;100.00
68889;BME280;55930;47.412;8.790;2024-02-26T06:21:22;93053.38;;;3.90;100.00
68889;BME280;55930;47.412;8.790;2024-02-26T06:24:43;93058.34;;;3.88;100.00
68889;BME280;55930;47.412;8.790;2024-02-26T06:28:03;93065.84;;;3.80;100.00
68889;BME280;55930;47.412;8.790;2024-02-26T06:31:24;93055.34;;;3.80;100.00
68889;BME280;55930;47.412;8.790;2024-02-26T06:34:47;93054.72;;;4.00;100.00
68889;BME280;55930;47.412;8.790;2024-02-26T06:38:10;93047.19;;;3.93;100.00
68889;BME280;55930;47.412;8.790;2024-02-26T06:41:32;93031.34;;;4.16;100.00
68889;BME280;55930;47.412;8.790;2024-02-26T06:44:53;93019.69;;;4.17;100.00
68889;BME280;55930;47.412;8.790;2024-02-26T06:48:13;93022.19;;;4.41;100.00
68889;BME280;55930;47.412;8.790;2024-02-26T06:51:36;93020.97;;;4.57;100.00
68889;BME280;55930;47.412;8.790;2024-02-26T06:54:56;93014.94;;;4.71;100.00
68889;BME280;55930;47.412;8.790;2024-02-26T06:58:17;93002.19;;;4.99;100.00
68889;BME280;55930;47.412;8.790;2024-02-26T07:01:40;92990.88;;;5.13;100.00
68889;BME280;55930;47.412;8.790;2024-02-26T07:05:03;92971.31;;;5.40;100.00
68889;BME280;55930;47.412;8.790;2024-02-26T07:08:24;92964.25;;;5.52;100.00
68889;BME280;55930;47.412;8.790;2024-02-26T07:11:44;92962.59;;;5.54;100.00
68889;BME280;55930;47.412;8.790;2024-02-26T07:15:05;92957.06;;;5.78;100.00
68889;BME280;55930;47.412;8.790;2024-02-26T07:18:28;92954.63;;;6.00;100.00
68889;BME280;55930;47.412;8.790;2024-02-26T07:21:48;92939.56;;;6.01;100.00
68889;BME280;55930;47.412;8.790;2024-02-26T07:25:10;92939.38;;;6.04;100.00
68889;BME280;55930;47.412;8.790;2024-02-26T07:28:33;92930.59;;;5.87;100.00
68889;BME280;55930;47.412;8.790;2024-02-26T07:31:54;92939.88;;;6.08;100.00
68889;BME280;55930;47.412;8.790;2024-02-26T07:35:14;92942.44;;;6.40;100.00
68889;BME280;55930;47.412;8.790;2024-02-26T07:38:35;92825.78;;;9.80;100.00
68889;BME280;55930;47.412;8.790;2024-02-26T07:41:55;92774.78;;;12.80;95.88
68889;BME280;55930;47.412;8.790;2024-02-26T07:45:16;92724.78;;;18.94;59.74
68889;BME280;55930;47.412;8.790;2024-02-26T07:48:39;92748.75;;;11.60;74.23
68889;BME280;55930;47.412;8.790;2024-02-26T07:52:01;92791.88;;;9.43;100.00
68889;BME280;55930;47.412;8.790;2024-02-26T07:55:21;92790.09;;;10.91;100.00
68889;BME280;55930;47.412;8.790;2024-02-26T07:58:43;92757.31;;;11.66;91.40
68889;BME280;55930;47.412;8.790;2024-02-26T08:02:03;92776.25;;;11.30;97.19
68889;BME280;55930;47.412;8.790;2024-02-26T08:05:25;92763.38;;;11.34;100.00
68889;BME280;55930;47.412;8.790;2024-02-26T08:08:46;92775.31;;;10.40;100.00
68889;BME280;55930;47.412;8.790;2024-02-26T08:12:06;92737.72;;;13.36;82.63
68889;BME280;55930;47.412;8.790;2024-02-26T08:15:29;92743.59;;;13.01;79.49
68889;BME280;55930;47.412;8.790;2024-02-26T08:18:49;92723.19;;;15.63;64.20
68889;BME280;55930;47.412;8.790;2024-02-26T08:22:10;92701.19;;;19.29;51.33
68889;BME280;55930;47.412;8.790;2024-02-26T08:25:36;92706.53;;;20.60;46.18
68889;BME280;55930;47.412;8.790;2024-02-26T08:28:56;92706.13;;;17.58;47.95
68889;BME280;55930;47.412;8.790;2024-02-26T08:32:18;92711.22;;;15.33;54.62
68889;BME280;55930;47.412;8.790;2024-02-26T08:35:39;92716.41;;;15.69;53.15
68889;BME280;55930;47.412;8.790;2024-02-26T08:38:59;92708.88;;;22.06;42.80
68889;BME280;55930;47.412;8.790;2024-02-26T08:42:20;92707.25;;;23.91;36.00
68889;BME280;55930;47.412;8.790;2024-02-26T08:45:41;92708.09;;;20.73;38.82
68889;BME280;55930;47.412;8.790;2024-02-26T08:49:01;92720.13;;;23.11;34.23
68889;BME280;55930;47.412;8.790;2024-02-26T08:52:22;92726.50;;;21.76;35.30
68889;BME280;55930;47.412;8.790;2024-02-26T08:55:43;92738.97;;;16.14;43.76
68889;BME280;55930;47.412;8.790;2024-02-26T08:59:03;92742.88;;;14.12;50.30
68889;BME280;55930;47.412;8.790;2024-02-26T09:02:24;92761.44;;;13.48;54.70
68889;BME280;55930;47.412;8.790;2024-02-26T09:05:44;92763.97;;;12.98;55.57
68889;BME280;55930;47.412;8.790;2024-02-26T09:09:04;92772.47;;;12.63;59.09
68889;BME280;55930;47.412;8.790;2024-02-26T09:12:25;92750.63;;;12.44;59.29
68889;BME280;55930;47.412;8.790;2024-02-26T09:15:46;92753.66;;;11.69;61.28
68889;BME280;55930;47.412;8.790;2024-02-26T09:19:06;92759.06;;;11.63;63.22
68889;BME280;55930;47.412;8.790;2024-02-26T09:22:29;92764.56;;;11.97;65.21
68889;BME280;55930;47.412;8.790;2024-02-26T09:25:49;92760.09;;;11.73;65.67
68889;BME280;55930;47.412;8.790;2024-02-26T09:29:12;92758.91;;;11.74;66.69
68889;BME280;55930;47.412;8.790;2024-02-26T09:32:33;92766.56;;;11.78;66.51
68889;BME280;55930;47.412;8.790;2024-02-26T09:35:53;92765.84;;;11.91;65.52
68889;BME280;55930;47.412;8.790;2024-02-26T09:39:16;92766.38;;;11.89;66.90
68889;BME280;55930;47.412;8.790;2024-02-26T09:42:44;92750.50;;;12.49;65.32
68889;BME280;55930;47.412;8.790;2024-02-26T09:46:08;92752.78;;;12.79;61.61
68889;BME280;55930;47.412;8.790;2024-02-26T09:49:28;92744.66;;;13.19;63.28
68889;BME280;55930;47.412;8.790;2024-02-26T09:52:52;92745.38;;;12.85;64.49
68889;BME280;55930;47.412;8.790;2024-02-26T09:56:17;92748.00;;;13.32;61.92
68889;BME280;55930;47.412;8.790;2024-02-26T09:59:41;92754.84;;;12.13;59.43
68889;BME280;55930;47.412;8.790;2024-02-26T10:03:04;92751.16;;;12.03;61.38
68889;BME280;55930;47.412;8.790;2024-02-26T10:06:26;92768.03;;;11.60;62.51
68889;BME280;55930;47.412;8.790;2024-02-26T10:09:47;92770.38;;;12.35;63.09
68889;BME280;55930;47.412;8.790;2024-02-26T10:13:08;92760.03;;;12.05;61.06
68889;BME280;55930;47.412;8.790;2024-02-26T10:16:32;92760.91;;;11.68;59.44
68889;BME280;55930;47.412;8.790;2024-02-26T10:19:54;92758.75;;;10.90;58.72
68889;BME280;55930;47.412;8.790;2024-02-26T10:23:16;92759.31;;;11.33;60.12
68889;BME280;55930;47.412;8.790;2024-02-26T10:26:36;92768.19;;;11.36;59.12
68889;BME280;55930;47.412;8.790;2024-02-26T10:29:57;92780.50;;;11.52;58.45
68889;BME280;55930;47.412;8.790;2024-02-26T10:33:18;92768.66;;;10.89;56.88
68889;BME280;55930;47.412;8.790;2024-02-26T10:36:38;92768.94;;;11.18;57.31
68889;BME280;55930;47.412;8.790;2024-02-26T10:40:01;92776.78;;;11.42;58.15
68889;BME280;55930;47.412;8.790;2024-02-26T10:43:25;92780.00;;;11.22;58.85
68889;BME280;55930;47.412;8.790;2024-02-26T10:46:50;92777.09;;;11.38;57.94
68889;BME280;55930;47.412;8.790;2024-02-26T10:50:12;92782.06;;;11.29;56.86
68889;BME280;55930;47.412;8.790;2024-02-26T10:53:33;92781.22;;;11.52;56.38
68889;BME280;55930;47.412;8.790;2024-02-26T10:56:56;92782.16;;;11.68;58.43
68889;BME280;55930;47.412;8.790;2024-02-26T11:00:18;92789.63;;;11.25;54.75
68889;BME280;55930;47.412;8.790;2024-02-26T11:03:38;92791.81;;;11.39;53.90
68889;BME280;55930;47.412;8.790;2024-02-26T11:07:00;92798.00;;;11.74;56.19
68889;BME280;55930;47.412;8.790;2024-02-26T11:10:21;92796.31;;;11.89;55.66
68889;BME280;55930;47.412;8.790;2024-02-26T11:13:47;92795.28;;;11.79;56.09
68889;BME280;55930;47.412;8.790;2024-02-26T11:17:12;92788.19;;;11.69;54.92
68889;BME280;55930;47.412;8.790;2024-02-26T11:20:33;92792.94;;;11.76;57.51
68889;BME280;55930;47.412;8.790;2024-02-26T11:24:00;92787.84;;;11.59;58.37
68889;BME280;55930;47.412;8.790;2024-02-26T11:27:27;92779.53;;;11.81;55.75
68889;BME280;55930;47.412;8.790;2024-02-26T11:30:53;92771.78;;;11.38;57.00
68889;BME280;55930;47.412;8.790;2024-02-26T11:34:15;92782.53;;;11.91;59.18
68889;BME280;55930;47.412;8.790;2024-02-26T11:37:36;92781.41;;;11.86;58.73
68889;BME280;55930;47.412;8.790;2024-02-26T11:40:58;92781.28;;;11.92;58.63
68889;BME280;55930;47.412;8.790;2024-02-26T11:44:29;92784.28;;;11.88;58.45
68889;BME280;55930;47.412;8.790;2024-02-26T11:47:56;92790.69;;;12.06;58.10
68889;BME280;55930;47.412;8.790;2024-02-26T11:51:25;92797.44;;;11.81;59.87
68889;BME280;55930;47.412;8.790;2024-02-26T11:58:08;92798.38;;;12.10;61.00
68889;BME280;55930;47.412;8.790;2024-02-26T12:01:39;92798.50;;;12.04;58.57
68889;BME280;55930;47.412;8.790;2024-02-26T12:04:59;92796.22;;;12.48;59.07
68889;BME280;55930;47.412;8.790;2024-02-26T12:08:21;92797.63;;;12.62;57.58
68889;BME280;55930;47.412;8.790;2024-02-26T12:11:43;92791.97;;;12.79;56.99
68889;BME280;55930;47.412;8.790;2024-02-26T12:15:04;92782.06;;;13.75;53.07
68889;BME280;55930;47.412;8.790;2024-02-26T12:18:29;92784.31;;;14.41;52.47
68889;BME280;55930;47.412;8.790;2024-02-26T12:21:51;92790.31;;;14.78;52.06
68889;BME280;55930;47.412;8.790;2024-02-26T12:25:13;92786.44;;;15.76;50.17
68889;BME280;55930;47.412;8.790;2024-02-26T12:28:34;92783.34;;;15.33;49.24
68889;BME280;55930;47.412;8.790;2024-02-26T12:31:54;92781.47;;;14.90;51.35
68889;BME280;55930;47.412;8.790;2024-02-26T12:35:15;92789.38;;;14.60;53.28
68889;BME280;55930;47.412;8.790;2024-02-26T12:38:41;92788.13;;;14.33;50.28
68889;BME280;55930;47.412;8.790;2024-02-26T12:42:01;92786.06;;;14.75;51.15
68889;BME280;55930;47.412;8.790;2024-02-26T12:45:22;92784.78;;;15.50;49.56
68889;BME280;55930;47.412;8.790;2024-02-26T12:48:43;92778.91;;;15.36;50.34
68889;BME280;55930;47.412;8.790;2024-02-26T12:52:05;92775.00;;;16.13;49.55
68889;BME280;55930;47.412;8.790;2024-02-26T12:55:26;92780.69;;;16.88;49.47
68889;BME280;55930;47.412;8.790;2024-02-26T12:58:47;92785.53;;;16.19;50.52
68889;BME280;55930;47.412;8.790;2024-02-26T13:02:08;92782.00;;;15.63;50.02
68889;BME280;55930;47.412;8.790;2024-02-26T13:05:29;92765.00;;;16.21;49.52
68889;BME280;55930;47.412;8.790;2024-02-26T13:08:56;92759.50;;;16.12;49.50
68889;BME280;55930;47.412;8.790;2024-02-26T13:12:18;92757.38;;;15.57;50.59
68889;BME280;55930;47.412;8.790;2024-02-26T13:15:39;92775.16;;;14.01;53.34
68889;BME280;55930;47.412;8.790;2024-02-26T13:19:09;92784.38;;;13.51;55.68
68889;BME280;55930;47.412;8.790;2024-02-26T13:22:30;92777.53;;;13.42;55.66
68889;BME280;55930;47.412;8.790;2024-02-26T13:25:56;92773.34;;;13.47;55.99
68889;BME280;55930;47.412;8.790;2024-02-26T13:29:17;92772.06;;;13.68;56.63
68889;BME280;55930;47.412;8.790;2024-02-26T13:32:40;92769.34;;;13.19;56.63
68889;BME280;55930;47.412;8.790;2024-02-26T13:36:01;92776.84;;;13.08;58.85
68889;BME280;55930;47.412;8.790;2024-02-26T13:39:25;92778.50;;;12.63;60.20
68889;BME280;55930;47.412;8.790;2024-02-26T13:42:45;92772.31;;;12.35;61.36
68889;BME280;55930;47.412;8.790;2024-02-26T13:46:08;92776.91;;;11.95;62.10
68889;BME280;55930;47.412;8.790;2024-02-26T13:49:28;92784.25;;;11.75;62.50
68889;BME280;55930;47.412;8.790;2024-02-26T13:52:49;92780.94;;;11.56;63.53
68889;BME280;55930;47.412;8.790;2024-02-26T13:56:13;92775.88;;;11.39;64.65
68889;BME280;55930;47.412;8.790;2024-02-26T13:59:33;92776.13;;;11.23;64.96
68889;BME280;55930;47.412;8.790;2024-02-26T14:02:54;92782.72;;;10.65;66.58
68889;BME280;55930;47.412;8.790;2024-02-26T14:06:14;92776.38;;;10.87;68.49
68889;BME280;55930;47.412;8.790;2024-02-26T14:09:35;92770.72;;;10.78;68.35
68889;BME280;55930;47.412;8.790;2024-02-26T14:12:55;92767.50;;;10.66;70.18
68889;BME280;55930;47.412;8.790;2024-02-26T14:16:15;92769.66;;;10.67;71.66
68889;BME280;55930;47.412;8.790;2024-02-26T14:19:36;92772.91;;;10.60;72.99
68889;BME280;55930;47.412;8.790;2024-02-26T14:23:02;92771.72;;;10.56;74.04
68889;BME280;55930;47.412;8.790;2024-02-26T14:26:23;92772.88;;;10.42;75.31
68889;BME280;55930;47.412;8.790;2024-02-26T14:29:43;92787.94;;;10.52;76.71
68889;BME280;55930;47.412;8.790;2024-02-26T14:33:04;92792.94;;;10.37;79.20
68889;BME280;55930;47.412;8.790;2024-02-26T14:36:26;92798.41;;;10.45;79.89
68889;BME280;55930;47.412;8.790;2024-02-26T14:39:46;92807.53;;;10.25;82.40
68889;BME280;55930;47.412;8.790;2024-02-26T14:43:08;92823.16;;;10.28;89.21
68889;BME280;55930;47.412;8.790;2024-02-26T14:46:30;92830.72;;;10.19;85.87
68889;BME280;55930;47.412;8.790;2024-02-26T14:49:50;92832.84;;;9.96;84.31
68889;BME280;55930;47.412;8.790;2024-02-26T14:53:11;92842.59;;;10.07;83.67
68889;BME280;55930;47.412;8.790;2024-02-26T14:56:32;92850.84;;;10.03;87.78
68889;BME280;55930;47.412;8.790;2024-02-26T14:59:52;92855.50;;;9.91;94.60
68889;BME280;55930;47.412;8.790;2024-02-26T15:03:15;92872.59;;;9.60;100.00
68889;BME280;55930;47.412;8.790;2024-02-26T15:06:38;92875.78;;;9.83;100.00
68889;BME280;55930;47.412;8.790;2024-02-26T15:10:01;92874.63;;;9.79;100.00
68889;BME280;55930;47.412;8.790;2024-02-26T15:13:21;92885.50;;;9.75;100.00
68889;BME280;55930;47.412;8.790;2024-02-26T15:16:42;92896.13;;;9.70;100.00
68889;BME280;55930;47.412;8.790;2024-02-26T15:20:03;92902.81;;;9.76;100.00
68889;BME280;55930;47.412;8.790;2024-02-26T15:23:23;92901.34;;;9.81;100.00
68889;BME280;55930;47.412;8.790;2024-02-26T15:26:46;92904.56;;;9.68;100.00
68889;BME280;55930;47.412;8.790;2024-02-26T15:30:07;92904.00;;;9.45;100.00
68889;BME280;55930;47.412;8.790;2024-02-26T15:33:27;92898.69;;;9.45;100.00
68889;BME280;55930;47.412;8.790;2024-02-26T15:36:48;92898.75;;;9.40;100.00
68889;BME280;55930;47.412;8.790;2024-02-26T15:40:08;92915.97;;;9.16;100.00
68889;BME280;55930;47.412;8.790;2024-02-26T15:43:29;92915.97;;;9.16;100.00
68889;BME280;55930;47.412;8.790;2024-02-26T15:46:49;92921.91;;;9.28;100.00
68889;BME280;55930;47.412;8.790;2024-02-26T15:50:10;92926.94;;;9.26;100.00
68889;BME280;55930;47.412;8.790;2024-02-26T15:53:32;92916.69;;;9.17;100.00
68889;BME280;55930;47.412;8.790;2024-02-26T15:56:52;92929.19;;;9.16;100.00
68889;BME280;55930;47.412;8.790;2024-02-26T16:00:13;92946.56;;;8.95;100.00
68889;BME280;55930;47.412;8.790;2024-02-26T16:03:38;92941.53;;;8.92;100.00
68889;BME280;55930;47.412;8.790;2024-02-26T16:07:01;92947.28;;;8.96;100.00
68889;BME280;55930;47.412;8.790;2024-02-26T16:10:24;92943.97;;;8.84;100.00
68889;BME280;55930;47.412;8.790;2024-02-26T16:13:50;92951.72;;;8.65;100.00
68889;BME280;55930;47.412;8.790;2024-02-26T16:17:27;92969.28;;;8.57;100.00
68889;BME280;55930;47.412;8.790;2024-02-26T16:20:52;92957.00;;;8.65;100.00
68889;BME280;55930;47.412;8.790;2024-02-26T16:24:14;92965.88;;;8.62;100.00
68889;BME280;55930;47.412;8.790;2024-02-26T16:27:34;92967.56;;;8.65;100.00
68889;BME280;55930;47.412;8.790;2024-02-26T16:30:58;92970.00;;;8.52;100.00
68889;BME280;55930;47.412;8.790;2024-02-26T16:34:20;92968.59;;;8.46;100.00
68889;BME280;55930;47.412;8.790;2024-02-26T16:37:41;92983.97;;;8.36;100.00
68889;BME280;55930;47.412;8.790;2024-02-26T16:41:01;92986.13;;;8.21;100.00
68889;BME280;55930;47.412;8.790;2024-02-26T16:44:22;92993.06;;;8.18;100.00
68889;BME280;55930;47.412;8.790;2024-02-26T16:47:45;92995.22;;;8.14;100.00
68889;BME280;55930;47.412;8.790;2024-02-26T16:51:05;93004.84;;;8.06;100.00
68889;BME280;55930;47.412;8.790;2024-02-26T16:54:26;93005.31;;;7.93;100.00
68889;BME280;55930;47.412;8.790;2024-02-26T16:57:46;93006.03;;;7.94;100.00
68889;BME280;55930;47.412;8.790;2024-02-26T17:01:07;93000.00;;;7.99;100.00
68889;BME280;55930;47.412;8.790;2024-02-26T17:04:27;92984.91;;;7.99;100.00
68889;BME280;55930;47.412;8.790;2024-02-26T17:07:48;92979.13;;;8.01;100.00
68889;BME280;55930;47.412;8.790;2024-02-26T17:11:08;92981.03;;;7.84;100.00
68889;BME280;55930;47.412;8.790;2024-02-26T17:14:29;92983.69;;;7.84;100.00
68889;BME280;55930;47.412;8.790;2024-02-26T17:17:51;92991.34;;;7.71;100.00
68889;BME280;55930;47.412;8.790;2024-02-26T17:21:19;93004.03;;;7.61;100.00
68889;BME280;55930;47.412;8.790;2024-02-26T17:24:39;93018.16;;;7.52;100.00
68889;BME280;55930;47.412;8.790;2024-02-26T17:28:01;93027.75;;;7.44;100.00
68889;BME280;55930;47.412;8.790;2024-02-26T17:31:22;93034.66;;;7.36;100.00
68889;BME280;55930;47.412;8.790;2024-02-26T17:34:43;93023.19;;;7.50;100.00
68889;BME280;55930;47.412;8.790;2024-02-26T17:38:03;93031.31;;;7.36;100.00
68889;BME280;55930;47.412;8.790;2024-02-26T17:41:23;93028.44;;;7.34;100.00
68889;BME280;55930;47.412;8.790;2024-02-26T17:44:44;93022.38;;;7.16;100.00
68889;BME280;55930;47.412;8.790;2024-02-26T17:48:04;93028.34;;;7.11;100.00
68889;BME280;55930;47.412;8.790;2024-02-26T17:51:27;93028.75;;;6.93;100.00